Time;durP1;ratioP1;P1;durP2;ratioP2;P2;SDS_P1;SDS_P2;PMS_P1;PMS_P2;Temp;Humidity;BMP_temperature;BMP_pressure;BME280_temperature;BME280_humidity;BME280_pressure;Samples;Min_cycle;Max_cycle;Signal;HPM_P1;HPM_P2
2022/06/12 00:00:51;;;;;;;4.28;1.50;;;16.20;99.90;;;;;;7339485;19;108188;-84
2022/06/12 00:03:22;;;;;;;9.45;1.83;;;16.20;99.90;;;;;;7338065;19;110468;-84
2022/06/12 00:05:51;;;;;;;7.90;2.22;;;16.10;99.90;;;;;;7339633;19;108267;-84
2022/06/12 00:08:19;;;;;;;7.55;2.15;;;16.00;99.90;;;;;;7346595;19;109137;-84
2022/06/12 00:10:49;;;;;;;6.47;2.03;;;16.00;99.90;;;;;;7341092;19;107192;-84
2022/06/12 00:13:20;;;;;;;5.88;1.90;;;15.90;99.90;;;;;;7338488;19;108116;-84
2022/06/12 00:15:48;;;;;;;8.18;1.98;;;15.80;99.90;;;;;;7337783;19;107664;-84
2022/06/12 00:18:15;;;;;;;6.38;1.67;;;15.80;99.90;;;;;;7336543;19;108611;-84
2022/06/12 00:20:42;;;;;;;6.05;2.00;;;15.70;99.90;;;;;;7339805;19;108526;-83
2022/06/12 00:23:13;;;;;;;6.88;2.03;;;15.70;99.90;;;;;;7338866;19;108394;-84
2022/06/12 00:25:41;;;;;;;6.68;2.03;;;15.70;99.90;;;;;;7339755;19;108721;-83
2022/06/12 00:28:08;;;;;;;4.90;1.65;;;15.60;99.90;;;;;;7339298;19;108959;-84
2022/06/12 00:30:36;;;;;;;6.00;1.90;;;15.60;99.90;;;;;;7345212;19;107520;-84
2022/06/12 00:33:05;;;;;;;7.32;1.80;;;15.50;99.90;;;;;;7338837;19;109376;-84
2022/06/12 00:35:34;;;;;;;6.28;2.03;;;15.50;99.90;;;;;;7338379;19;107977;-84
2022/06/12 00:38:02;;;;;;;10.93;2.17;;;15.50;99.90;;;;;;7340315;19;107922;-84
2022/06/12 00:40:30;;;;;;;5.47;2.00;;;15.40;99.90;;;;;;7340224;19;108999;-85
2022/06/12 00:43:00;;;;;;;7.43;2.05;;;15.40;99.90;;;;;;7340251;19;107573;-84
2022/06/12 00:45:47;;;;;;;7.20;2.03;;;15.30;99.90;;;;;;7338181;19;108287;-84
2022/06/12 00:48:22;;;;;;;4.90;2.00;;;15.30;99.90;;;;;;7339512;19;110785;-84
2022/06/12 00:51:16;;;;;;;3.25;1.50;;;15.20;99.90;;;;;;7339435;19;108297;-84
2022/06/12 00:53:52;;;;;;;4.25;1.90;;;15.20;99.90;;;;;;7345322;19;108527;-84
2022/06/12 00:56:22;;;;;;;6.05;1.73;;;15.20;99.90;;;;;;7339574;19;108232;-84
2022/06/12 00:58:54;;;;;;;8.88;1.70;;;15.20;99.90;;;;;;7339220;19;108290;-84
2022/06/12 01:01:27;;;;;;;7.53;1.85;;;15.10;99.90;;;;;;7337748;19;108252;-84
2022/06/12 01:06:44;;;;;;;7.32;2.00;;;15.10;99.90;;;;;;7340540;19;107457;-84
2022/06/12 01:09:22;;;;;;;3.75;1.60;;;15.00;99.90;;;;;;7339418;19;108967;-84
2022/06/12 01:11:53;;;;;;;3.33;1.42;;;15.00;99.90;;;;;;7347085;19;108393;-84
2022/06/12 01:14:25;;;;;;;4.25;1.73;;;14.90;99.90;;;;;;7352102;19;108274;-84
2022/06/12 01:16:57;;;;;;;7.25;1.90;;;14.80;99.90;;;;;;7343538;19;108234;-83
2022/06/12 01:19:32;;;;;;;5.35;1.70;;;14.70;99.90;;;;;;7347088;19;107553;-84
2022/06/12 01:22:36;;;;;;;3.85;1.65;;;14.80;99.90;;;;;;7345640;19;109119;-84
2022/06/12 01:25:21;;;;;;;5.90;1.63;;;14.70;99.90;;;;;;7347170;19;108499;-84
2022/06/12 01:28:10;;;;;;;5.93;1.77;;;14.70;99.90;;;;;;7345268;19;108578;-83
2022/06/12 01:30:45;;;;;;;3.63;1.67;;;14.60;99.90;;;;;;7344188;19;112115;-83
2022/06/12 01:33:33;;;;;;;4.82;1.77;;;14.60;99.90;;;;;;7344153;19;110141;-84
2022/06/12 01:36:25;;;;;;;3.67;1.60;;;14.60;99.90;;;;;;7342831;19;108765;-83
2022/06/12 01:39:07;;;;;;;6.20;1.98;;;14.60;99.90;;;;;;7351795;19;109241;-84
2022/06/12 01:42:05;;;;;;;3.90;1.58;;;14.50;99.90;;;;;;7346779;19;108769;-84
2022/06/12 01:44:57;;;;;;;4.95;1.90;;;14.50;99.90;;;;;;7344496;19;108985;-84
2022/06/12 01:47:29;;;;;;;3.92;1.60;;;14.40;99.90;;;;;;7347771;19;108376;-84
2022/06/12 01:50:19;;;;;;;3.33;1.40;;;14.40;99.90;;;;;;7347067;19;108106;-84
2022/06/12 01:53:13;;;;;;;4.50;1.75;;;14.40;99.90;;;;;;7346003;19;109029;-84
2022/06/12 01:55:50;;;;;;;9.88;1.88;;;14.40;99.90;;;;;;7345412;19;110474;-83
2022/06/12 01:58:46;;;;;;;10.43;1.95;;;14.40;99.90;;;;;;7345908;19;110551;-86
2022/06/12 02:01:28;;;;;;;5.28;1.58;;;14.40;99.90;;;;;;7345918;19;108928;-83
2022/06/12 02:04:06;;;;;;;6.57;2.03;;;14.30;99.90;;;;;;7347415;19;108540;-84
2022/06/12 02:06:41;;;;;;;6.50;1.40;;;14.20;99.90;;;;;;7345423;19;108670;-84
2022/06/12 02:09:37;;;;;;;3.47;1.58;;;14.20;99.90;;;;;;7345135;19;109432;-84
2022/06/12 02:15:04;;;;;;;4.65;1.63;;;14.10;99.90;;;;;;7344607;19;108685;-84
2022/06/12 02:17:37;;;;;;;5.03;1.65;;;14.10;99.90;;;;;;7340950;19;109101;-84
2022/06/12 02:20:09;;;;;;;10.10;1.70;;;14.00;99.90;;;;;;7346115;19;111245;-84
2022/06/12 02:22:39;;;;;;;7.88;2.10;;;14.00;99.90;;;;;;7340921;19;108635;-83
2022/06/12 02:25:19;;;;;;;6.82;1.80;;;13.90;99.90;;;;;;7342499;19;107479;-84
2022/06/12 02:28:18;;;;;;;6.28;1.67;;;13.90;99.90;;;;;;7347583;19;107574;-83
2022/06/12 02:30:49;;;;;;;6.03;2.03;;;13.80;99.90;;;;;;7342623;19;108048;-84
2022/06/12 02:33:20;;;;;;;4.25;1.38;;;13.80;99.90;;;;;;7343025;19;108527;-84
2022/06/12 02:35:56;;;;;;;8.48;1.70;;;13.80;99.90;;;;;;7344507;19;108928;-84
2022/06/12 02:38:25;;;;;;;6.75;1.80;;;13.80;99.90;;;;;;7342021;19;107219;-84
2022/06/12 02:41:07;;;;;;;7.57;1.80;;;13.80;99.90;;;;;;7344901;19;108491;-83
2022/06/12 02:43:38;;;;;;;9.07;1.70;;;13.80;99.90;;;;;;7344997;19;107942;-84
2022/06/12 02:46:21;;;;;;;3.05;1.25;;;13.80;99.90;;;;;;7342193;19;107922;-84
2022/06/12 02:48:48;;;;;;;6.88;1.77;;;13.90;99.90;;;;;;7342371;19;107430;-84
2022/06/12 02:51:48;;;;;;;8.07;1.63;;;13.80;99.90;;;;;;7347975;19;109162;-83
2022/06/12 02:54:32;;;;;;;6.18;1.50;;;13.80;99.90;;;;;;7341630;19;107185;-84
2022/06/12 02:57:20;;;;;;;4.15;1.88;;;13.80;99.90;;;;;;7341159;19;108663;-84
2022/06/12 03:00:06;;;;;;;;;;;13.80;99.90;;;;;;7342123;19;107214;-84
2022/06/12 03:02:54;;;;;;;3.63;1.42;;;13.70;99.90;;;;;;7347395;19;110327;-83
2022/06/12 03:05:24;;;;;;;;;;;13.60;99.90;;;;;;7344987;19;109382;-84
2022/06/12 03:08:00;;;;;;;4.82;1.33;;;13.60;99.90;;;;;;7346885;19;107298;-83
2022/06/12 03:10:48;;;;;;;5.13;1.27;;;13.60;99.90;;;;;;7342614;19;111621;-84
2022/06/12 03:13:17;;;;;;;6.07;1.40;;;13.60;99.90;;;;;;7342142;19;110545;-83
2022/06/12 03:15:50;;;;;;;6.25;1.60;;;13.70;99.90;;;;;;7346892;19;107970;-83
2022/06/12 03:18:27;;;;;;;5.63;1.60;;;13.60;99.90;;;;;;7341929;19;109256;-84
2022/06/12 03:21:16;;;;;;;7.82;1.60;;;13.70;99.90;;;;;;7342977;19;107086;-83
2022/06/12 03:23:49;;;;;;;9.65;1.30;;;13.70;99.90;;;;;;7341459;19;108140;-83
2022/06/12 03:26:44;;;;;;;4.93;1.58;;;13.60;99.90;;;;;;7344336;19;109214;-83
2022/06/12 03:29:17;;;;;;;4.68;1.17;;;13.60;99.90;;;;;;7342390;19;110212;-84
2022/06/12 03:32:00;;;;;;;4.65;1.52;;;13.60;99.90;;;;;;7343288;19;108415;-84
2022/06/12 03:34:37;;;;;;;22.75;1.80;;;13.60;99.90;;;;;;7341494;19;108895;-83
2022/06/12 03:37:13;;;;;;;6.47;1.42;;;13.60;99.90;;;;;;7345337;19;108377;-84
2022/06/12 03:40:12;;;;;;;8.02;1.35;;;13.60;99.90;;;;;;7342366;19;108985;-83
2022/06/12 03:42:39;;;;;;;5.18;1.55;;;13.70;99.90;;;;;;7340042;19;111078;-84
2022/06/12 03:45:06;;;;;;;;;;;13.60;99.90;;;;;;7343500;19;107970;-84
2022/06/12 03:47:40;;;;;;;5.80;1.40;;;13.70;99.90;;;;;;7345993;19;108016;-83
2022/06/12 03:50:29;;;;;;;8.55;1.40;;;13.60;99.90;;;;;;7344456;19;108752;-84
2022/06/12 03:53:09;;;;;;;7.25;1.30;;;13.70;99.90;;;;;;7340348;19;108239;-83
2022/06/12 03:58:43;;;;;;;6.70;1.30;;;13.70;99.90;;;;;;7339963;19;108255;-84
2022/06/12 04:01:11;;;;;;;12.77;1.58;;;13.70;99.90;;;;;;7346435;19;107669;-83
2022/06/12 04:03:42;;;;;;;4.60;1.10;;;13.70;99.90;;;;;;7343169;19;108004;-83
2022/06/12 04:06:15;;;;;;;5.07;1.40;;;13.80;99.90;;;;;;7340854;19;108174;-83
2022/06/12 04:08:48;;;;;;;8.02;1.60;;;13.80;99.90;;;;;;7340420;19;108835;-84
2022/06/12 04:11:18;;;;;;;9.02;1.58;;;13.90;99.90;;;;;;7341915;19;108247;-84
2022/06/12 04:13:46;;;;;;;8.82;1.33;;;13.90;99.90;;;;;;7341564;19;109715;-84
2022/06/12 04:16:35;;;;;;;5.85;1.58;;;14.00;99.90;;;;;;7341046;19;109213;-83
2022/06/12 04:19:06;;;;;;;7.53;1.33;;;14.00;99.90;;;;;;7339506;19;107574;-84
2022/06/12 04:21:51;;;;;;;6.55;1.60;;;14.10;99.90;;;;;;7342196;19;108222;-84
2022/06/12 04:24:25;;;;;;;7.50;1.70;;;14.20;99.90;;;;;;7345538;19;108874;-83
2022/06/12 04:27:04;;;;;;;6.10;1.40;;;14.20;99.90;;;;;;7341855;19;111279;-85
2022/06/12 04:29:35;;;;;;;7.57;1.60;;;14.30;99.90;;;;;;7340902;19;108302;-84
2022/06/12 04:32:05;;;;;;;7.55;1.70;;;14.30;99.90;;;;;;7340853;19;107562;-84
2022/06/12 04:34:40;;;;;;;7.13;1.65;;;14.40;99.90;;;;;;7341813;19;107766;-83
2022/06/12 04:37:19;;;;;;;7.38;1.40;;;14.40;99.90;;;;;;7338564;19;109185;-83
2022/06/12 04:39:47;;;;;;;8.48;1.30;;;14.50;99.90;;;;;;7341560;19;108124;-83
2022/06/12 04:42:17;;;;;;;11.98;2.15;;;14.60;99.90;;;;;;7339304;19;108005;-83
2022/06/12 04:44:45;;;;;;;9.20;1.70;;;14.60;99.90;;;;;;7340493;19;108901;-83
2022/06/12 04:47:15;;;;;;;7.60;1.52;;;14.70;99.90;;;;;;7352779;19;108216;-84
2022/06/12 04:49:42;;;;;;;8.57;1.60;;;14.80;99.90;;;;;;7346333;19;112031;-83
2022/06/12 04:52:12;;;;;;;8.18;1.92;;;14.80;99.90;;;;;;7346460;19;108730;-83
2022/06/12 04:54:41;;;;;;;8.60;1.95;;;14.90;99.90;;;;;;7346381;19;110341;-84
2022/06/12 04:57:09;;;;;;;9.57;1.98;;;14.90;99.90;;;;;;7346785;19;108165;-83
2022/06/12 04:59:37;;;;;;;8.10;1.67;;;15.00;99.90;;;;;;7345357;19;108244;-84
2022/06/12 05:02:05;;;;;;;11.45;1.92;;;15.00;99.90;;;;;;7346225;19;109058;-84
2022/06/12 05:04:32;;;;;;;7.93;1.80;;;15.10;99.90;;;;;;7348231;19;107776;-84
2022/06/12 05:06:59;;;;;;;6.65;1.60;;;15.20;99.90;;;;;;7348365;19;111248;-84
2022/06/12 05:09:31;;;;;;;9.88;2.03;;;15.20;99.90;;;;;;7353103;19;108370;-83
2022/06/12 05:11:58;;;;;;;10.40;2.10;;;15.30;99.90;;;;;;7348107;19;107232;-84
2022/06/12 05:14:26;;;;;;;12.48;2.08;;;15.40;99.90;;;;;;7346411;19;108118;-84
2022/06/12 05:16:59;;;;;;;10.40;2.10;;;15.40;99.90;;;;;;7345904;19;109291;-85
2022/06/12 05:19:31;;;;;;;8.50;2.08;;;15.50;99.90;;;;;;7347009;19;107703;-84
2022/06/12 05:22:00;;;;;;;12.10;2.33;;;15.60;99.90;;;;;;7347248;19;108832;-85
2022/06/12 05:24:27;;;;;;;10.52;2.25;;;15.70;99.90;;;;;;7343852;19;108711;-84
2022/06/12 05:26:56;;;;;;;12.32;1.88;;;15.80;99.90;;;;;;7346994;19;108232;-83
2022/06/12 05:29:29;;;;;;;9.82;2.40;;;15.90;99.90;;;;;;7347304;19;108226;-86
2022/06/12 05:31:57;;;;;;;14.45;2.47;;;16.10;99.90;;;;;;7351538;19;108697;-87
2022/06/12 05:34:26;;;;;;;10.02;2.72;;;16.20;99.90;;;;;;7344895;19;107994;-87
2022/06/12 05:36:54;;;;;;;10.32;2.67;;;16.40;99.90;;;;;;7347289;19;109791;-86
2022/06/12 05:39:22;;;;;;;15.38;2.80;;;16.50;99.90;;;;;;7346572;19;109214;-87
2022/06/12 05:41:50;;;;;;;12.02;2.72;;;16.60;99.90;;;;;;7346169;19;108411;-88
2022/06/12 05:44:17;;;;;;;15.80;2.70;;;16.70;99.90;;;;;;7344390;19;108328;-86
2022/06/12 05:46:45;;;;;;;12.75;2.47;;;16.80;99.90;;;;;;7347346;19;108468;-87
2022/06/12 05:49:13;;;;;;;21.17;3.03;;;16.90;99.90;;;;;;7344912;19;107951;-87
2022/06/12 05:51:41;;;;;;;16.17;2.95;;;17.00;99.90;;;;;;7349826;19;109033;-87
2022/06/12 05:54:10;;;;;;;16.20;2.72;;;17.10;99.90;;;;;;7346542;19;111479;-87
2022/06/12 05:56:39;;;;;;;14.68;2.60;;;17.20;99.90;;;;;;7344828;19;108641;-86
2022/06/12 05:59:06;;;;;;;17.27;2.80;;;17.20;99.90;;;;;;7341568;19;107044;-87
2022/06/12 06:01:34;;;;;;;14.90;3.08;;;17.30;99.90;;;;;;7346623;19;108026;-87
2022/06/12 06:04:01;;;;;;;16.92;2.75;;;17.30;99.90;;;;;;7344300;19;108518;-87
2022/06/12 06:06:34;;;;;;;20.52;3.15;;;17.40;99.90;;;;;;7344650;19;110046;-87
2022/06/12 06:09:05;;;;;;;12.30;3.13;;;17.60;99.90;;;;;;7350190;19;107331;-90
2022/06/12 06:11:33;;;;;;;16.60;3.65;;;17.70;99.90;;;;;;7351371;19;109038;-93
2022/06/12 06:14:00;;;;;;;17.73;3.53;;;17.80;99.90;;;;;;7356013;19;110554;-90
2022/06/12 06:16:27;;;;;;;19.38;3.58;;;18.00;99.90;;;;;;7350786;19;109251;-91
2022/06/12 06:18:55;;;;;;;15.40;3.58;;;18.10;99.90;;;;;;7346533;19;111213;-93
2022/06/12 06:21:22;;;;;;;18.25;3.58;;;18.20;99.90;;;;;;7353260;19;107511;-93
2022/06/12 06:23:49;;;;;;;21.42;3.65;;;18.20;99.90;;;;;;7353281;19;108234;-92
2022/06/12 06:26:19;;;;;;;21.30;3.75;;;18.30;99.90;;;;;;7353519;19;107991;-93
2022/06/12 06:28:49;;;;;;;14.27;3.63;;;18.30;99.90;;;;;;7353089;19;108232;-92
2022/06/12 06:31:17;;;;;;;12.98;3.53;;;18.30;99.90;;;;;;7350084;19;109156;-91
2022/06/12 06:33:45;;;;;;;20.38;3.67;;;18.40;99.90;;;;;;7351687;19;107137;-90
2022/06/12 06:36:15;;;;;;;17.70;3.67;;;18.50;99.90;;;;;;7354026;19;108153;-90
2022/06/12 06:38:45;;;;;;;20.17;3.72;;;18.60;99.90;;;;;;7350594;19;108012;-93
2022/06/12 06:41:14;;;;;;;15.02;3.88;;;18.70;99.90;;;;;;7352624;19;107232;-91
2022/06/12 06:46:27;;;;;;;15.13;3.72;;;18.60;99.90;;;;;;7350144;19;108568;-93
2022/06/12 06:48:55;;;;;;;22.85;3.50;;;18.70;99.90;;;;;;7353520;19;108391;-93
2022/06/12 06:51:22;;;;;;;17.55;3.80;;;18.80;99.90;;;;;;7351865;19;109456;-91
2022/06/12 06:53:50;;;;;;;20.17;4.03;;;18.90;99.90;;;;;;7351525;19;107392;-93
2022/06/12 06:56:17;;;;;;;26.35;4.47;;;19.00;99.90;;;;;;7351162;19;110966;-92
2022/06/12 06:58:45;;;;;;;16.33;3.50;;;19.10;99.90;;;;;;7356762;19;107543;-93
2022/06/12 07:01:12;;;;;;;19.45;4.38;;;19.10;99.90;;;;;;7350481;19;107271;-93
2022/06/12 07:03:43;;;;;;;17.52;3.90;;;19.20;99.90;;;;;;7349935;19;108139;-93
2022/06/12 07:06:15;;;;;;;25.88;5.35;;;19.20;99.90;;;;;;7352568;19;106781;-93
2022/06/12 07:08:51;;;;;;;22.17;4.40;;;19.30;99.90;;;;;;7349414;19;108019;-92
2022/06/12 07:11:18;;;;;;;21.88;3.85;;;19.30;99.90;;;;;;7351803;19;109161;-92
2022/06/12 07:13:46;;;;;;;18.52;3.90;;;19.30;99.90;;;;;;7349781;19;108191;-92
2022/06/12 07:16:13;;;;;;;18.77;3.53;;;19.40;99.90;;;;;;7351143;19;107169;-92
2022/06/12 07:18:41;;;;;;;19.00;3.70;;;19.50;99.90;;;;;;7347731;19;110676;-90
2022/06/12 07:21:09;;;;;;;13.90;4.05;;;19.50;99.90;;;;;;7353463;19;109385;-90
2022/06/12 07:23:36;;;;;;;22.25;4.30;;;19.60;99.90;;;;;;7349183;19;109094;-89
2022/06/12 07:26:08;;;;;;;19.88;4.22;;;19.70;99.90;;;;;;7348801;19;110982;-90
2022/06/12 07:28:37;;;;;;;23.55;4.43;;;19.70;99.90;;;;;;7347685;19;108413;-91
2022/06/12 07:31:07;;;;;;;16.27;3.55;;;19.80;99.90;;;;;;7346213;19;109173;-90
2022/06/12 07:33:35;;;;;;;18.52;3.78;;;19.90;99.90;;;;;;7349554;19;108518;-91
2022/06/12 07:36:07;;;;;;;24.05;4.35;;;20.00;99.90;;;;;;7345516;19;109470;-91
2022/06/12 07:38:36;;;;;;;18.67;3.42;;;20.10;99.90;;;;;;7346876;19;107882;-90
2022/06/12 07:41:23;;;;;;;22.40;4.13;;;20.10;99.90;;;;;;7347101;19;110187;-91
2022/06/12 07:43:51;;;;;;;14.75;3.75;;;20.20;99.90;;;;;;7353390;19;108797;-91
2022/06/12 07:46:20;;;;;;;15.98;3.92;;;20.30;99.90;;;;;;7348244;19;107514;-91
2022/06/12 07:48:52;;;;;;;15.85;3.92;;;20.30;99.90;;;;;;7346910;19;107096;-91
2022/06/12 07:51:21;;;;;;;14.30;3.17;;;20.30;99.90;;;;;;7347647;19;107977;-92
2022/06/12 07:53:49;;;;;;;16.85;3.90;;;20.40;99.90;;;;;;7345553;19;108350;-91
2022/06/12 07:56:19;;;;;;;17.40;3.60;;;20.40;99.90;;;;;;7346899;19;107884;-90
2022/06/12 07:58:46;;;;;;;18.98;3.38;;;20.50;99.90;;;;;;7346926;19;112056;-90
2022/06/12 08:01:17;;;;;;;14.32;2.95;;;20.70;99.90;;;;;;7344301;19;108036;-90
2022/06/12 08:03:45;;;;;;;12.93;3.30;;;20.90;99.90;;;;;;7352296;19;111334;-90
2022/06/12 08:06:12;;;;;;;15.15;3.20;;;20.90;99.90;;;;;;7344706;19;110108;-90
2022/06/12 08:08:40;;;;;;;17.20;3.63;;;21.00;99.90;;;;;;7346689;19;110995;-90
2022/06/12 08:11:07;;;;;;;16.55;3.45;;;21.10;99.90;;;;;;7346612;19;109001;-91
2022/06/12 08:13:35;;;;;;;18.98;3.92;;;21.00;99.90;;;;;;7345266;19;108209;-89
2022/06/12 08:16:03;;;;;;;14.73;3.53;;;21.10;99.90;;;;;;7346181;19;108548;-91
2022/06/12 08:18:30;;;;;;;16.02;3.60;;;21.20;99.90;;;;;;7344479;19;109051;-91
2022/06/12 08:21:01;;;;;;;15.32;3.17;;;21.30;99.90;;;;;;7348188;19;108538;-90
2022/06/12 08:23:53;;;;;;;15.85;2.72;;;21.20;99.80;;;;;;7354095;19;108281;-89
2022/06/12 08:26:27;;;;;;;11.60;3.17;;;21.20;99.90;;;;;;7358003;19;109022;-92
2022/06/12 08:29:15;;;;;;;15.70;3.08;;;21.20;99.90;;;;;;7352237;19;108173;-92
2022/06/12 08:31:49;;;;;;;15.02;2.70;;;21.20;99.70;;;;;;7350638;19;111478;-90
2022/06/12 08:34:24;;;;;;;13.05;2.92;;;21.20;99.80;;;;;;7353838;19;108425;-91
2022/06/12 08:36:53;;;;;;;12.20;3.28;;;21.20;99.90;;;;;;7352989;19;108067;-89
2022/06/12 08:39:21;;;;;;;13.57;3.05;;;21.30;99.90;;;;;;7349787;19;108048;-91
2022/06/12 08:42:24;;;;;;;10.88;2.92;;;21.40;99.90;;;;;;7354248;19;108267;-90
2022/06/12 08:45:03;;;;;;;12.90;3.08;;;21.60;99.90;;;;;;7350060;19;108846;-92
2022/06/12 08:47:54;;;;;;;15.18;3.08;;;21.70;99.90;;;;;;7354043;19;108801;-93
2022/06/12 08:50:30;;;;;;;11.93;2.38;;;21.90;99.90;;;;;;7357254;19;107183;-90
2022/06/12 08:53:15;;;;;;;11.77;2.38;;;22.00;98.80;;;;;;7351339;19;109048;-90
2022/06/12 08:55:55;;;;;;;11.68;2.10;;;22.10;99.10;;;;;;7349718;19;107203;-90
2022/06/12 08:58:45;;;;;;;9.27;2.17;;;22.10;98.80;;;;;;7348213;19;108421;-89
2022/06/12 09:01:13;;;;;;;8.95;2.33;;;22.10;98.10;;;;;;7346680;19;110276;-90
2022/06/12 09:03:49;;;;;;;16.10;3.20;;;22.10;98.40;;;;;;7346808;19;107994;-89
2022/06/12 09:06:25;;;;;;;16.13;3.10;;;22.00;98.10;;;;;;7346439;19;107634;-90
2022/06/12 09:09:03;;;;;;;12.18;2.33;;;22.10;98.80;;;;;;7351969;19;108306;-90
2022/06/12 09:11:44;;;;;;;8.32;2.35;;;22.30;99.50;;;;;;7349118;19;108011;-88
2022/06/12 09:14:37;;;;;;;11.70;2.35;;;22.60;98.80;;;;;;7355636;19;110623;-89
2022/06/12 09:17:31;;;;;;;10.27;2.20;;;22.70;97.70;;;;;;7351083;19;108319;-91
2022/06/12 09:20:26;;;;;;;13.82;2.70;;;22.70;97.40;;;;;;7346239;19;110851;-88
2022/06/12 09:23:02;;;;;;;7.72;1.70;;;22.70;97.60;;;;;;7344100;19;108529;-87
2022/06/12 09:25:53;;;;;;;8.85;1.92;;;22.70;95.70;;;;;;7343045;19;108096;-87
2022/06/12 09:28:32;;;;;;;10.48;2.15;;;22.60;95.70;;;;;;7345906;19;109681;-88
2022/06/12 09:31:25;;;;;;;10.63;2.20;;;22.60;95.70;;;;;;7346619;19;108959;-88
2022/06/12 09:34:22;;;;;;;14.45;2.47;;;22.70;96.80;;;;;;7345790;19;107321;-87
2022/06/12 09:38:18;;;;;;;9.13;2.42;;;22.90;97.00;;;;;;7349794;19;108298;-89
2022/06/12 09:40:31;;;;;;;10.57;2.30;;;23.20;95.90;;;;;;7353899;19;108483;-92
2022/06/12 09:43:07;;;;;;;10.25;2.47;;;23.20;96.30;;;;;;7351722;19;108252;-91
2022/06/12 09:45:53;;;;;;;9.30;2.33;;;23.20;95.70;;;;;;7350260;19;108819;-88
2022/06/12 09:48:29;;;;;;;12.95;2.33;;;23.20;95.80;;;;;;7352258;19;106935;-92
2022/06/12 09:51:20;;;;;;;13.47;2.60;;;23.20;95.30;;;;;;7353196;19;110605;-92
2022/06/12 09:54:16;;;;;;;12.10;2.65;;;23.10;95.30;;;;;;7351988;19;109635;-90
2022/06/12 09:57:10;;;;;;;10.77;2.38;;;23.20;95.80;;;;;;7351607;19;106869;-89
2022/06/12 09:59:58;;;;;;;8.93;2.47;;;23.40;95.80;;;;;;7349455;19;108300;-90
2022/06/12 10:02:34;;;;;;;9.25;2.47;;;23.40;94.30;;;;;;7349891;19;112006;-90
2022/06/12 10:05:19;;;;;;;14.75;2.30;;;23.30;94.40;;;;;;7351552;19;106808;-91
2022/06/12 10:08:14;;;;;;;11.75;2.17;;;23.20;95.20;;;;;;7347750;19;107898;-83
2022/06/12 10:11:18;;;;;;;15.73;2.53;;;23.30;95.00;;;;;;7342804;19;108562;-82
2022/06/12 10:13:59;;;;;;;8.07;2.10;;;23.30;94.90;;;;;;7340821;19;108123;-83
2022/06/12 10:16:38;;;;;;;11.82;2.30;;;23.20;94.90;;;;;;7340140;19;112165;-83
2022/06/12 10:19:36;;;;;;;6.38;1.70;;;23.30;94.60;;;;;;7340038;19;110566;-82
2022/06/12 10:22:14;;;;;;;8.80;2.13;;;23.30;93.90;;;;;;7341057;19;108186;-83
2022/06/12 10:24:41;;;;;;;9.02;1.90;;;23.20;93.90;;;;;;7340309;19;108958;-84
2022/06/12 10:27:11;;;;;;;10.27;1.65;;;23.30;94.00;;;;;;7345070;19;108400;-83
2022/06/12 10:29:50;;;;;;;9.13;2.20;;;23.50;93.80;;;;;;7340620;19;109015;-82
2022/06/12 10:32:22;;;;;;;8.52;2.05;;;23.50;93.70;;;;;;7340990;19;108334;-83
2022/06/12 10:34:51;;;;;;;14.07;2.20;;;23.70;94.40;;;;;;7339701;19;107424;-84
2022/06/12 10:37:23;;;;;;;10.25;2.20;;;23.90;94.00;;;;;;7339647;19;109278;-83
2022/06/12 10:40:06;;;;;;;6.40;1.60;;;24.00;93.30;;;;;;7338912;19;108298;-83
2022/06/12 10:42:48;;;;;;;6.60;2.22;;;24.10;93.20;;;;;;7339022;19;107147;-83
2022/06/12 10:45:30;;;;;;;8.93;1.88;;;24.10;93.80;;;;;;7338866;19;110610;-82
2022/06/12 10:48:02;;;;;;;6.40;1.70;;;24.30;93.20;;;;;;7340680;19;107958;-82
2022/06/12 10:50:34;;;;;;;6.95;2.03;;;24.50;92.60;;;;;;7349308;19;111367;-82
2022/06/12 10:53:13;;;;;;;9.35;2.13;;;24.50;92.60;;;;;;7342551;19;108019;-82
2022/06/12 10:55:58;;;;;;;15.00;2.00;;;24.60;92.90;;;;;;7343076;19;108185;-83
2022/06/12 10:59:00;;;;;;;11.55;2.17;;;24.80;91.70;;;;;;7342572;19;108932;-83
2022/06/12 11:01:51;;;;;;;7.63;1.88;;;24.80;92.10;;;;;;7342146;19;110077;-85
2022/06/12 11:04:34;;;;;;;12.10;2.35;;;24.70;91.10;;;;;;7342696;19;108944;-83
2022/06/12 11:07:30;;;;;;;10.88;1.70;;;24.70;92.10;;;;;;7342863;19;110614;-83
2022/06/12 11:10:24;;;;;;;6.85;2.03;;;24.80;90.90;;;;;;7342669;19;109187;-82
2022/06/12 11:13:25;;;;;;;9.63;1.58;;;24.80;91.30;;;;;;7343718;19;108647;-82
2022/06/12 11:15:57;;;;;;;9.45;1.98;;;24.80;91.20;;;;;;7348695;19;108802;-82
2022/06/12 11:18:49;;;;;;;8.13;1.70;;;24.70;91.90;;;;;;7339392;19;108181;-83
2022/06/12 11:21:48;;;;;;;10.13;1.85;;;24.90;92.10;;;;;;7340496;19;108984;-83
2022/06/12 11:24:31;;;;;;;5.65;1.65;;;25.10;92.00;;;;;;7341617;19;107984;-82
2022/06/12 11:27:29;;;;;;;8.50;1.73;;;25.20;91.50;;;;;;7340582;19;108067;-84
2022/06/12 11:30:22;;;;;;;8.82;2.10;;;25.20;90.30;;;;;;7343820;19;109137;-82
2022/06/12 11:33:10;;;;;;;8.07;1.90;;;25.40;91.30;;;;;;7343729;19;108121;-82
2022/06/12 11:36:01;;;;;;;7.30;2.10;;;25.60;90.90;;;;;;7343187;19;107429;-83
2022/06/12 11:38:38;;;;;;;14.15;1.80;;;25.70;90.50;;;;;;7340091;19;108927;-84
2022/06/12 11:41:22;;;;;;;12.68;2.15;;;25.80;90.60;;;;;;7345554;19;108026;-83
2022/06/12 11:44:25;;;;;;;5.85;1.80;;;25.80;90.10;;;;;;7342934;19;108950;-86
2022/06/12 11:47:11;;;;;;;6.65;1.77;;;25.80;90.20;;;;;;7342688;19;107947;-86
2022/06/12 11:49:59;;;;;;;8.30;1.95;;;25.90;87.40;;;;;;7342436;19;108330;-85
2022/06/12 11:52:38;;;;;;;7.72;1.60;;;26.00;87.60;;;;;;7342168;19;108720;-85
2022/06/12 11:55:41;;;;;;;7.47;2.10;;;26.10;88.80;;;;;;7342635;19;108283;-85
2022/06/12 11:58:27;;;;;;;7.13;2.00;;;26.10;85.20;;;;;;7337891;19;107441;-85
2022/06/12 12:01:10;;;;;;;5.88;1.40;;;26.30;84.30;;;;;;7335909;19;108996;-84
2022/06/12 12:04:08;;;;;;;5.13;1.80;;;26.30;84.30;;;;;;7337093;19;108228;-85
2022/06/12 12:07:06;;;;;;;6.53;1.45;;;26.50;83.10;;;;;;7340589;19;108538;-84
2022/06/12 12:09:59;;;;;;;5.68;1.63;;;26.60;81.90;;;;;;7337690;19;107628;-84
2022/06/12 12:12:38;;;;;;;6.95;1.60;;;26.70;78.20;;;;;;7337307;19;109173;-84
2022/06/12 12:15:13;;;;;;;5.65;1.45;;;26.70;79.50;;;;;;7336944;19;109162;-85
2022/06/12 12:17:44;;;;;;;5.82;1.50;;;26.70;78.10;;;;;;7336571;19;107688;-85
2022/06/12 12:20:17;;;;;;;9.05;2.13;;;26.70;80.00;;;;;;7337336;19;107424;-85
2022/06/12 12:23:04;;;;;;;6.40;1.40;;;26.60;78.30;;;;;;7337637;19;107946;-85
2022/06/12 12:25:56;;;;;;;6.90;1.98;;;26.70;81.70;;;;;;7337876;19;108251;-86
2022/06/12 12:28:34;;;;;;;7.45;1.73;;;26.90;80.70;;;;;;7342499;19;107917;-85
2022/06/12 12:31:05;;;;;;;7.32;1.70;;;27.10;81.00;;;;;;7334942;19;111936;-85
2022/06/12 12:33:33;;;;;;;5.43;1.40;;;27.10;80.00;;;;;;7341164;19;108610;-86
2022/06/12 12:41:50;;;;;;;7.90;1.98;;;27.30;79.50;;;;;;7338572;19;111159;-84
2022/06/12 12:44:36;;;;;;;6.65;1.67;;;27.40;79.80;;;;;;7341309;19;108484;-86
2022/06/12 12:47:26;;;;;;;6.95;1.88;;;27.60;75.40;;;;;;7341236;19;108238;-85
2022/06/12 12:50:10;;;;;;;6.97;1.63;;;27.70;75.30;;;;;;7339889;19;109193;-86
2022/06/12 12:52:52;;;;;;;7.43;1.50;;;27.70;74.90;;;;;;7344754;19;109223;-85
2022/06/12 12:55:27;;;;;;;6.00;1.70;;;27.70;72.60;;;;;;7337578;19;108514;-85
2022/06/12 12:57:58;;;;;;;6.03;1.58;;;27.90;75.20;;;;;;7339069;19;108412;-85
2022/06/12 13:00:33;;;;;;;8.43;1.50;;;28.10;74.60;;;;;;7337190;19;108351;-86
2022/06/12 13:03:02;;;;;;;13.95;2.10;;;28.30;74.20;;;;;;7339056;19;108446;-85
2022/06/12 13:05:47;;;;;;;10.15;1.75;;;28.30;73.70;;;;;;7339930;19;112704;-85
2022/06/12 13:08:34;;;;;;;7.07;1.70;;;28.20;71.80;;;;;;7348596;19;107584;-85
2022/06/12 13:11:23;;;;;;;5.13;1.50;;;28.10;71.50;;;;;;7344588;19;111024;-85
2022/06/12 13:14:08;;;;;;;5.38;1.20;;;28.20;73.20;;;;;;7347257;19;112335;-85
2022/06/12 13:16:54;;;;;;;8.50;1.40;;;28.20;71.50;;;;;;7350990;19;110604;-86
2022/06/12 13:19:42;;;;;;;6.77;1.73;;;28.10;72.40;;;;;;7348159;19;109064;-85
2022/06/12 13:22:10;;;;;;;;;;;28.10;71.40;;;;;;7347735;19;107204;-85
2022/06/12 13:24:46;;;;;;;5.82;1.38;;;28.10;72.00;;;;;;7350865;19;107297;-85
2022/06/12 13:27:25;;;;;;;6.72;1.70;;;27.90;70.50;;;;;;7346316;19;112084;-85
2022/06/12 13:29:54;;;;;;;5.10;1.15;;;27.90;73.00;;;;;;7345467;19;110335;-85
2022/06/12 13:32:28;;;;;;;6.90;1.33;;;28.00;71.90;;;;;;7344514;19;110616;-86
2022/06/12 13:35:29;;;;;;;6.38;1.17;;;28.00;68.80;;;;;;7347093;19;110872;-86
2022/06/12 13:38:03;;;;;;;5.18;1.33;;;28.10;65.20;;;;;;7345806;19;108923;-86
2022/06/12 13:40:38;;;;;;;5.57;1.10;;;28.20;65.00;;;;;;7349651;19;110641;-85